Time;durP1;ratioP1;P1;durP2;ratioP2;P2;SDS_P1;SDS_P2;PMS_P1;PMS_P2;Temp;Humidity;BMP_temperature;BMP_pressure;BME280_temperature;BME280_humidity;BME280_pressure;Samples;Min_cycle;Max_cycle;Signal;HPM_P1;HPM_P2
2022/08/14 00:01:14;;;;;;;4.30;4.10;;;24.80;41.60;;;;;;5063882;28;20458;-63
2022/08/14 00:03:39;;;;;;;4.20;4.00;;;24.80;41.60;;;;;;5074518;28;20217;-62
2022/08/14 00:06:05;;;;;;;4.00;3.80;;;24.70;41.50;;;;;;5086754;27;20284;-66
2022/08/14 00:08:31;;;;;;;4.43;4.23;;;24.70;41.60;;;;;;5078943;27;20273;-59
2022/08/14 00:10:56;;;;;;;4.13;3.93;;;24.80;41.60;;;;;;5082241;27;20251;-59
2022/08/14 00:13:27;;;;;;;4.20;4.00;;;24.70;41.60;;;;;;5082739;27;20220;-70
2022/08/14 00:15:53;;;;;;;3.83;3.63;;;24.70;41.60;;;;;;5079364;27;20309;-60
2022/08/14 00:18:21;;;;;;;4.10;3.90;;;24.80;41.60;;;;;;5072312;28;20453;-60
2022/08/14 00:20:48;;;;;;;4.33;4.13;;;24.70;41.60;;;;;;5080437;27;20469;-73
2022/08/14 00:23:14;;;;;;;4.13;3.93;;;24.80;41.60;;;;;;5086093;27;20454;-61
2022/08/14 00:25:42;;;;;;;4.10;3.90;;;24.70;41.60;;;;;;5080246;27;20461;-59
2022/08/14 00:28:10;;;;;;;4.03;3.83;;;24.80;41.60;;;;;;5085903;27;20522;-67
2022/08/14 00:30:36;;;;;;;4.80;4.60;;;24.70;41.60;;;;;;5078963;28;20449;-60
2022/08/14 00:33:03;;;;;;;3.97;3.77;;;24.70;41.60;;;;;;5085334;28;21158;-71
2022/08/14 00:35:29;;;;;;;4.00;3.80;;;24.70;41.60;;;;;;5087029;27;20239;-64
2022/08/14 00:37:55;;;;;;;4.23;4.03;;;24.70;41.60;;;;;;5064005;28;20497;-59
2022/08/14 00:40:21;;;;;;;4.33;4.13;;;24.70;41.60;;;;;;5079892;27;20473;-73
2022/08/14 00:42:47;;;;;;;3.97;3.77;;;24.70;41.50;;;;;;5072239;27;20228;-63
2022/08/14 00:45:14;;;;;;;3.97;3.77;;;24.70;41.50;;;;;;5082435;28;20243;-59
2022/08/14 00:47:41;;;;;;;4.20;4.00;;;24.70;41.50;;;;;;5081797;28;20502;-60
2022/08/14 00:50:10;;;;;;;4.40;4.20;;;24.70;41.50;;;;;;5084197;27;20520;-59
2022/08/14 00:52:36;;;;;;;4.80;4.60;;;24.70;41.50;;;;;;5079886;27;20569;-65
2022/08/14 00:55:04;;;;;;;4.50;4.30;;;24.70;41.50;;;;;;5084526;27;20486;-60
2022/08/14 00:57:32;;;;;;;3.93;3.73;;;24.70;41.50;;;;;;5076034;27;20446;-60
2022/08/14 00:59:59;;;;;;;4.10;3.90;;;24.70;41.50;;;;;;5081905;27;20503;-60
2022/08/14 01:02:26;;;;;;;4.03;3.83;;;24.70;41.60;;;;;;5083913;27;20445;-59
2022/08/14 01:04:56;;;;;;;4.53;4.33;;;24.70;41.60;;;;;;5086325;27;20464;-59
2022/08/14 01:07:24;;;;;;;4.50;4.30;;;24.70;41.60;;;;;;5083955;27;20438;-64
2022/08/14 01:09:52;;;;;;;4.20;4.00;;;24.70;41.60;;;;;;5082489;27;20540;-73
2022/08/14 01:12:19;;;;;;;4.27;4.07;;;24.70;41.50;;;;;;5084944;27;20457;-60
2022/08/14 01:14:45;;;;;;;4.13;3.93;;;24.80;41.70;;;;;;5085790;27;20475;-59
2022/08/14 01:17:12;;;;;;;4.17;3.97;;;24.80;41.60;;;;;;5079806;27;20478;-66
2022/08/14 01:22:22;;;;;;;4.10;3.90;;;24.70;42.30;;;;;;5071176;27;20457;-61
2022/08/14 01:24:47;;;;;;;3.80;3.63;;;24.70;41.60;;;;;;5082335;27;20445;-65
2022/08/14 01:27:18;;;;;;;4.60;4.40;;;24.80;41.70;;;;;;5077027;28;20221;-59
2022/08/14 01:29:50;;;;;;;4.00;3.80;;;24.70;41.60;;;;;;5081261;27;20216;-61
2022/08/14 01:32:20;;;;;;;4.63;4.43;;;24.70;41.60;;;;;;5072652;28;20560;-67
2022/08/14 01:34:53;;;;;;;4.40;4.20;;;24.70;41.60;;;;;;5070362;28;20465;-62
2022/08/14 01:37:24;;;;;;;3.97;3.77;;;24.70;41.50;;;;;;5082238;27;20465;-64
2022/08/14 01:39:51;;;;;;;3.93;3.73;;;24.70;41.50;;;;;;5080866;27;20461;-63
2022/08/14 01:42:18;;;;;;;4.23;4.03;;;24.70;41.50;;;;;;5080305;28;20449;-60
2022/08/14 01:44:49;;;;;;;4.60;4.40;;;24.70;41.50;;;;;;5078538;28;20498;-59
2022/08/14 01:47:15;;;;;;;4.77;4.57;;;24.70;41.50;;;;;;5082814;28;20441;-67
2022/08/14 01:49:41;;;;;;;4.70;4.50;;;24.70;41.50;;;;;;5083298;28;20437;-60
2022/08/14 01:52:07;;;;;;;4.60;4.40;;;24.70;41.50;;;;;;5078782;27;20236;-60
2022/08/14 01:54:34;;;;;;;4.60;4.40;;;24.70;41.90;;;;;;5082897;28;20263;-60
2022/08/14 01:57:00;;;;;;;4.20;4.00;;;24.70;41.50;;;;;;5067397;27;20487;-66
2022/08/14 01:59:32;;;;;;;4.00;3.80;;;24.70;41.50;;;;;;5069509;27;20874;-64
2022/08/14 02:02:02;;;;;;;4.03;3.83;;;24.70;41.50;;;;;;5074619;27;20220;-67
2022/08/14 02:04:33;;;;;;;4.30;4.10;;;24.70;41.50;;;;;;5075613;27;20472;-60
2022/08/14 02:07:01;;;;;;;4.43;4.23;;;24.70;41.50;;;;;;5070820;27;21036;-61
2022/08/14 02:09:26;;;;;;;5.33;5.07;;;24.70;41.50;;;;;;5066544;27;20465;-60
2022/08/14 02:11:52;;;;;;;4.63;4.43;;;24.70;41.50;;;;;;5077071;28;20518;-63
2022/08/14 02:14:18;;;;;;;4.43;4.23;;;24.70;41.40;;;;;;5081038;28;20687;-68
2022/08/14 02:16:51;;;;;;;4.13;3.93;;;24.70;41.50;;;;;;5079979;28;20696;-59
2022/08/14 02:19:20;;;;;;;4.00;3.80;;;24.70;41.40;;;;;;5069146;28;20493;-61
2022/08/14 02:21:47;;;;;;;4.00;3.80;;;24.70;41.50;;;;;;5072729;28;20552;-70
2022/08/14 02:24:14;;;;;;;4.30;4.10;;;24.70;41.40;;;;;;5078906;27;20446;-60
2022/08/14 02:26:46;;;;;;;4.77;4.57;;;24.70;41.40;;;;;;5070925;27;20450;-66
2022/08/14 02:29:16;;;;;;;4.20;4.00;;;24.70;41.40;;;;;;5075003;28;20818;-67
2022/08/14 02:31:45;;;;;;;4.00;3.80;;;24.70;41.40;;;;;;5080117;27;20453;-63
2022/08/14 02:34:22;;;;;;;3.90;3.70;;;24.70;41.30;;;;;;5081403;27;20483;-59
2022/08/14 02:36:50;;;;;;;4.10;3.90;;;24.70;41.30;;;;;;5069706;28;20952;-71
2022/08/14 02:39:16;;;;;;;4.53;4.33;;;24.70;41.30;;;;;;5073620;27;20465;-63
2022/08/14 02:41:42;;;;;;;4.17;3.97;;;24.70;41.30;;;;;;5075662;28;20467;-66
2022/08/14 02:44:09;;;;;;;4.57;4.37;;;24.70;41.30;;;;;;5078940;27;20247;-67
2022/08/14 02:46:36;;;;;;;4.60;4.40;;;24.70;41.30;;;;;;5077165;28;20468;-64
2022/08/14 02:49:03;;;;;;;4.30;4.10;;;24.70;41.30;;;;;;5075248;28;20484;-59
2022/08/14 02:51:29;;;;;;;4.40;4.20;;;24.70;41.20;;;;;;5070549;27;20450;-59
2022/08/14 02:53:57;;;;;;;4.70;4.50;;;24.70;41.20;;;;;;5076861;27;20461;-68
2022/08/14 02:56:24;;;;;;;4.80;4.60;;;24.70;41.20;;;;;;5078106;27;20671;-59
2022/08/14 02:58:50;;;;;;;4.00;3.80;;;24.70;41.20;;;;;;5076666;27;20512;-70
2022/08/14 03:01:19;;;;;;;4.20;4.00;;;24.70;41.20;;;;;;5079857;27;20471;-63
2022/08/14 03:03:47;;;;;;;4.53;4.33;;;24.70;41.20;;;;;;5079362;28;20469;-59
2022/08/14 03:06:13;;;;;;;5.13;4.83;;;24.70;41.20;;;;;;5081098;28;20448;-66
2022/08/14 03:08:40;;;;;;;4.50;4.30;;;24.70;41.20;;;;;;5085579;27;20452;-61
2022/08/14 03:11:11;;;;;;;4.50;4.20;;;24.70;41.20;;;;;;5074599;28;20448;-72
2022/08/14 03:13:39;;;;;;;4.03;3.83;;;24.70;41.20;;;;;;5079515;27;20461;-62
2022/08/14 03:16:07;;;;;;;4.17;3.97;;;24.70;41.20;;;;;;5080761;28;20469;-59
2022/08/14 03:18:33;;;;;;;4.47;4.27;;;24.70;41.20;;;;;;5071917;28;20441;-61
2022/08/14 03:21:01;;;;;;;4.57;4.37;;;24.70;41.10;;;;;;5084188;27;22760;-59
2022/08/14 03:23:27;;;;;;;4.40;4.20;;;24.70;41.10;;;;;;5085838;27;20261;-61
2022/08/14 03:25:52;;;;;;;4.33;4.13;;;24.70;41.10;;;;;;5079878;28;20873;-72
2022/08/14 03:28:18;;;;;;;4.60;4.40;;;24.70;41.10;;;;;;5081979;28;20224;-59
2022/08/14 03:30:44;;;;;;;4.60;4.40;;;24.70;41.20;;;;;;5078759;27;20298;-58
2022/08/14 03:33:11;;;;;;;3.93;3.80;;;24.70;41.10;;;;;;5083721;28;20246;-61
2022/08/14 03:35:38;;;;;;;5.00;4.80;;;24.70;41.10;;;;;;5079486;27;20454;-59
2022/08/14 03:38:09;;;;;;;4.40;4.20;;;24.70;41.60;;;;;;5081320;27;20444;-62
2022/08/14 03:40:38;;;;;;;4.47;4.27;;;24.70;41.10;;;;;;5078746;27;20496;-60
2022/08/14 03:43:06;;;;;;;4.40;4.20;;;24.70;41.10;;;;;;5079190;27;20453;-59
2022/08/14 03:45:34;;;;;;;4.43;4.23;;;24.70;41.10;;;;;;5071582;27;20451;-72
2022/08/14 03:48:08;;;;;;;4.50;4.30;;;24.70;41.10;;;;;;5078563;27;20480;-71
2022/08/14 03:50:34;;;;;;;5.07;4.77;;;24.70;41.10;;;;;;5077177;28;21053;-75
2022/08/14 03:53:01;;;;;;;4.17;3.97;;;24.70;41.10;;;;;;5081349;28;20465;-58
2022/08/14 03:55:27;;;;;;;5.60;5.30;;;24.70;41.00;;;;;;5072222;28;20233;-63
2022/08/14 03:57:54;;;;;;;4.50;4.30;;;24.70;41.10;;;;;;5080704;27;20462;-71
2022/08/14 04:00:20;;;;;;;4.47;4.27;;;24.70;41.10;;;;;;5084874;27;20477;-61
2022/08/14 04:02:48;;;;;;;4.80;4.60;;;24.70;41.10;;;;;;5088468;28;20490;-67
2022/08/14 04:05:14;;;;;;;4.60;4.40;;;24.70;41.10;;;;;;5081162;28;20315;-62
2022/08/14 04:07:40;;;;;;;4.57;4.37;;;24.70;41.10;;;;;;5083693;27;20441;-65
2022/08/14 04:10:06;;;;;;;4.30;4.10;;;24.70;41.10;;;;;;5079423;27;20465;-61
2022/08/14 04:12:32;;;;;;;4.57;4.37;;;24.70;41.00;;;;;;5085419;27;20429;-61
2022/08/14 04:14:58;;;;;;;5.17;4.87;;;24.70;41.10;;;;;;5082476;27;20490;-65
2022/08/14 04:17:25;;;;;;;4.53;4.33;;;24.70;41.10;;;;;;5084965;27;20204;-60
2022/08/14 04:19:51;;;;;;;4.57;4.37;;;24.70;41.10;;;;;;5083186;27;20351;-69
2022/08/14 04:22:19;;;;;;;4.80;4.60;;;24.70;41.10;;;;;;5077610;27;20484;-61
2022/08/14 04:24:45;;;;;;;4.70;4.50;;;24.70;41.00;;;;;;5081841;27;20461;-59
2022/08/14 04:27:11;;;;;;;4.33;4.13;;;24.70;41.00;;;;;;5084148;27;20449;-70
2022/08/14 04:29:39;;;;;;;4.70;4.50;;;24.70;41.00;;;;;;5082804;27;20263;-62
2022/08/14 04:32:09;;;;;;;4.83;4.53;;;24.70;41.00;;;;;;5074295;27;20967;-60
2022/08/14 04:34:39;;;;;;;4.80;4.60;;;24.70;41.00;;;;;;5078162;27;20995;-63
2022/08/14 04:45:22;;;;;;;4.40;4.20;;;24.80;41.20;;;;;;5079906;27;20963;-67
2022/08/14 04:50:34;;;;;;;5.13;4.93;;;24.80;41.30;;;;;;5071030;28;20468;-68
2022/08/14 04:53:00;;;;;;;5.03;4.83;;;24.80;41.60;;;;;;5076784;28;20462;-59
2022/08/14 04:55:26;;;;;;;4.87;4.67;;;24.80;41.40;;;;;;5069104;28;20446;-71
2022/08/14 04:57:51;;;;;;;4.50;4.30;;;24.90;41.50;;;;;;5079391;28;20497;-59
2022/08/14 05:00:17;;;;;;;4.77;4.57;;;24.90;41.60;;;;;;5070628;28;20240;-59
2022/08/14 05:02:43;;;;;;;5.63;5.33;;;24.90;41.60;;;;;;5079062;27;20223;-65
2022/08/14 05:05:08;;;;;;;4.87;4.67;;;24.90;41.70;;;;;;5074375;27;20257;-60
2022/08/14 05:07:34;;;;;;;4.80;4.60;;;24.90;41.70;;;;;;5075859;27;20221;-65
2022/08/14 05:10:00;;;;;;;5.13;4.93;;;24.90;41.70;;;;;;5072541;27;20232;-60
2022/08/14 05:12:27;;;;;;;4.63;4.43;;;24.90;41.80;;;;;;5073914;27;20311;-63
2022/08/14 05:14:53;;;;;;;4.87;4.67;;;24.90;41.80;;;;;;5081307;27;20458;-61
2022/08/14 05:17:20;;;;;;;4.83;4.63;;;24.90;41.80;;;;;;5078016;27;20474;-69
2022/08/14 05:19:46;;;;;;;4.97;4.77;;;24.90;41.80;;;;;;5082114;27;20323;-65
2022/08/14 05:22:11;;;;;;;4.67;4.47;;;24.90;41.90;;;;;;5077006;28;20537;-67
2022/08/14 05:24:37;;;;;;;5.37;5.07;;;24.90;41.80;;;;;;5073635;28;20240;-60
2022/08/14 05:27:03;;;;;;;4.83;4.63;;;24.90;41.90;;;;;;5078117;28;20219;-64
2022/08/14 05:29:30;;;;;;;4.43;4.23;;;24.90;41.80;;;;;;5076262;28;20756;-64
2022/08/14 05:31:55;;;;;;;4.83;4.63;;;24.90;41.80;;;;;;5067524;28;20296;-68
2022/08/14 05:34:22;;;;;;;5.70;5.50;;;24.90;41.80;;;;;;5070037;28;20464;-63
2022/08/14 05:36:48;;;;;;;4.90;4.70;;;24.90;41.80;;;;;;5071193;27;20267;-70
2022/08/14 05:39:14;;;;;;;5.53;5.13;;;24.90;41.80;;;;;;5083701;27;20465;-67
2022/08/14 05:41:39;;;;;;;5.30;5.00;;;24.90;41.80;;;;;;5073212;27;20246;-68
2022/08/14 05:44:05;;;;;;;5.20;5.00;;;24.90;41.80;;;;;;5064615;27;20684;-61
2022/08/14 05:46:30;;;;;;;5.20;5.00;;;24.90;41.80;;;;;;5083854;27;20268;-61
2022/08/14 05:48:57;;;;;;;4.97;4.77;;;24.90;41.80;;;;;;5075003;28;20224;-62
2022/08/14 05:51:24;;;;;;;5.37;4.87;;;24.90;41.80;;;;;;5081867;28;20239;-63
2022/08/14 05:53:50;;;;;;;5.47;5.17;;;24.90;41.70;;;;;;5085890;28;20437;-62
2022/08/14 05:56:16;;;;;;;5.97;5.67;;;24.90;41.80;;;;;;5081962;27;20450;-64
2022/08/14 05:58:42;;;;;;;5.03;4.83;;;24.90;41.70;;;;;;5081933;28;20401;-65
2022/08/14 06:01:08;;;;;;;5.27;5.07;;;25.00;41.80;;;;;;5072625;28;20453;-63
2022/08/14 06:03:34;;;;;;;5.30;4.90;;;24.90;41.70;;;;;;5082506;27;20228;-62
2022/08/14 06:06:00;;;;;;;5.13;4.93;;;24.90;41.70;;;;;;5077485;27;20523;-72
2022/08/14 06:08:29;;;;;;;5.10;4.90;;;24.90;41.70;;;;;;5076158;27;20220;-67
2022/08/14 06:11:04;;;;;;;5.50;5.20;;;24.90;41.80;;;;;;5074950;28;20306;-75
2022/08/14 06:13:31;;;;;;;4.67;4.47;;;24.90;41.80;;;;;;5075825;28;20445;-63
2022/08/14 06:15:58;;;;;;;4.97;4.77;;;24.90;41.90;;;;;;5079408;27;20465;-60
2022/08/14 06:18:24;;;;;;;5.33;5.13;;;24.90;41.80;;;;;;5075564;27;20855;-65
2022/08/14 06:20:49;;;;;;;5.27;4.97;;;24.90;41.80;;;;;;5071641;28;20960;-65
2022/08/14 06:23:16;;;;;;;5.93;5.63;;;24.90;41.80;;;;;;5069655;27;20501;-63
2022/08/14 06:25:43;;;;;;;5.30;5.00;;;25.00;41.90;;;;;;5081574;28;20244;-61
2022/08/14 06:28:18;;;;;;;5.67;5.47;;;24.90;41.80;;;;;;5076446;28;20940;-63
2022/08/14 06:30:43;;;;;;;5.57;5.30;;;24.90;41.80;;;;;;5080777;28;20812;-59
2022/08/14 06:33:09;;;;;;;5.73;5.40;;;25.00;41.80;;;;;;5083426;27;20449;-71
2022/08/14 06:35:35;;;;;;;5.23;4.93;;;24.90;41.70;;;;;;5077419;27;20213;-66
2022/08/14 06:38:00;;;;;;;5.90;5.50;;;24.90;41.60;;;;;;5084092;27;20688;-67
2022/08/14 06:40:30;;;;;;;6.37;6.07;;;25.00;41.50;;;;;;5081750;27;20263;-63
2022/08/14 06:43:01;;;;;;;6.50;6.20;;;24.90;41.30;;;;;;5084605;27;20303;-69
2022/08/14 06:45:28;;;;;;;6.93;6.60;;;24.90;41.10;;;;;;5081029;27;20468;-59
2022/08/14 06:47:54;;;;;;;6.90;6.53;;;25.00;41.20;;;;;;5071784;27;20471;-59
2022/08/14 06:50:22;;;;;;;6.93;6.43;;;25.00;40.90;;;;;;5083183;28;20457;-63
2022/08/14 06:52:48;;;;;;;7.10;6.60;;;25.00;40.70;;;;;;5082924;27;20509;-63
2022/08/14 06:55:18;;;;;;;7.10;6.70;;;25.00;40.60;;;;;;5085277;28;21198;-63
2022/08/14 06:57:49;;;;;;;6.90;6.40;;;25.00;40.60;;;;;;5079868;28;20449;-60
2022/08/14 07:00:21;;;;;;;6.93;6.43;;;25.00;40.50;;;;;;5084644;28;20474;-65
2022/08/14 07:05:45;;;;;;;6.93;6.40;;;25.00;40.40;;;;;;5079036;28;20506;-66
2022/08/14 07:08:18;;;;;;;7.30;6.60;;;25.00;40.40;;;;;;5080474;28;20571;-70
2022/08/14 07:10:45;;;;;;;6.87;6.47;;;25.00;40.40;;;;;;5084735;27;20811;-60
2022/08/14 07:13:13;;;;;;;5.70;5.40;;;25.00;40.40;;;;;;5084538;27;20958;-64
2022/08/14 07:15:40;;;;;;;6.83;6.43;;;25.00;40.40;;;;;;5081329;28;20445;-68
2022/08/14 07:18:07;;;;;;;7.20;6.73;;;25.00;40.40;;;;;;5075875;28;20465;-68
2022/08/14 07:20:33;;;;;;;6.60;6.30;;;25.00;40.30;;;;;;5079528;27;20479;-61
2022/08/14 07:23:01;;;;;;;6.00;5.70;;;25.00;40.40;;;;;;5081646;28;21081;-67
2022/08/14 07:25:27;;;;;;;7.03;6.63;;;25.00;40.30;;;;;;5075983;27;20217;-69
2022/08/14 07:27:53;;;;;;;6.73;6.37;;;25.00;40.30;;;;;;5068866;28;20457;-64
2022/08/14 07:30:21;;;;;;;6.40;6.00;;;25.00;40.30;;;;;;5069033;27;20465;-74
2022/08/14 07:32:46;;;;;;;7.10;6.70;;;25.00;40.30;;;;;;5074538;27;20498;-61
2022/08/14 07:35:12;;;;;;;6.30;5.90;;;25.00;40.50;;;;;;5078892;27;20445;-69
2022/08/14 07:37:38;;;;;;;6.97;6.47;;;25.00;40.50;;;;;;5068309;28;20769;-63
2022/08/14 07:40:04;;;;;;;7.00;6.50;;;25.00;40.50;;;;;;5072593;28;20264;-61
2022/08/14 07:42:31;;;;;;;6.00;5.70;;;25.00;40.50;;;;;;5083450;28;20367;-61
2022/08/14 07:44:57;;;;;;;7.17;6.73;;;25.00;40.50;;;;;;5077533;27;20484;-65
2022/08/14 07:47:23;;;;;;;6.03;5.73;;;25.00;40.60;;;;;;5063060;28;20473;-64
2022/08/14 07:50:00;;;;;;;7.40;6.90;;;25.00;40.70;;;;;;5076894;28;20464;-65
2022/08/14 07:52:27;;;;;;;7.30;6.90;;;25.00;40.60;;;;;;5076462;27;20518;-64
2022/08/14 07:54:53;;;;;;;6.67;6.27;;;25.00;40.70;;;;;;5079112;27;21081;-61
2022/08/14 07:57:19;;;;;;;6.07;5.67;;;25.00;40.70;;;;;;5082147;27;21073;-73
2022/08/14 07:59:46;;;;;;;7.00;6.60;;;25.00;40.80;;;;;;5080717;27;20465;-61
2022/08/14 08:02:14;;;;;;;6.53;6.17;;;25.00;41.00;;;;;;5080449;27;20448;-64
2022/08/14 08:04:43;;;;;;;5.93;5.63;;;25.00;40.90;;;;;;5081994;27;20489;-68
2022/08/14 08:07:10;;;;;;;6.80;6.27;;;25.00;41.00;;;;;;5081976;27;20458;-68
2022/08/14 08:09:40;;;;;;;5.97;5.67;;;25.00;41.00;;;;;;5082317;27;20445;-62
2022/08/14 08:12:06;;;;;;;6.27;5.87;;;25.00;41.00;;;;;;5081419;27;20471;-64
2022/08/14 08:14:33;;;;;;;6.60;6.20;;;25.00;41.10;;;;;;5070837;27;20452;-59
2022/08/14 08:17:00;;;;;;;6.50;6.20;;;25.00;41.10;;;;;;5066631;27;20465;-67
2022/08/14 08:19:26;;;;;;;6.87;6.53;;;25.00;41.20;;;;;;5080210;28;20547;-64
2022/08/14 08:21:52;;;;;;;6.73;6.43;;;25.00;41.20;;;;;;5072803;27;20533;-64
2022/08/14 08:24:18;;;;;;;6.50;6.10;;;25.00;41.20;;;;;;5082429;27;20236;-59
2022/08/14 08:26:43;;;;;;;6.37;5.97;;;25.00;41.30;;;;;;5075426;28;20461;-62
2022/08/14 08:29:09;;;;;;;6.87;6.47;;;25.00;41.30;;;;;;5082274;28;20229;-63
2022/08/14 08:31:49;;;;;;;6.67;6.10;;;25.00;41.30;;;;;;5081222;28;20310;-64
2022/08/14 08:34:18;;;;;;;6.53;6.13;;;25.00;41.30;;;;;;5059384;28;20583;-58
2022/08/14 08:36:44;;;;;;;11.57;7.13;;;25.00;41.30;;;;;;5072454;27;20960;-59
2022/08/14 08:39:10;;;;;;;7.87;6.53;;;25.00;41.40;;;;;;5077801;28;21140;-69
2022/08/14 08:41:46;;;;;;;6.30;5.90;;;25.00;41.40;;;;;;5073846;27;20531;-60
2022/08/14 08:44:12;;;;;;;6.30;6.00;;;25.00;41.40;;;;;;5068904;27;20932;-63
2022/08/14 08:46:38;;;;;;;7.10;6.80;;;25.00;41.40;;;;;;5078417;27;20465;-60
2022/08/14 08:49:05;;;;;;;6.57;6.00;;;25.00;41.50;;;;;;5066524;27;20458;-65
2022/08/14 08:51:32;;;;;;;7.63;7.00;;;25.00;41.50;;;;;;5080256;27;20480;-62
2022/08/14 08:54:09;;;;;;;7.10;6.70;;;25.00;41.50;;;;;;5081394;28;20958;-61
2022/08/14 08:56:51;;;;;;;9.80;6.70;;;25.00;41.70;;;;;;5080922;28;20480;-66
2022/08/14 08:59:21;;;;;;;6.30;5.93;;;25.00;41.50;;;;;;5072927;28;20473;-64
2022/08/14 09:02:01;;;;;;;6.63;6.23;;;25.00;41.60;;;;;;5081011;28;20801;-63
2022/08/14 09:04:28;;;;;;;7.00;6.53;;;25.00;41.60;;;;;;5072312;28;20973;-62
2022/08/14 09:06:55;;;;;;;7.13;6.63;;;25.00;41.70;;;;;;5071879;28;20452;-60
2022/08/14 09:09:26;;;;;;;6.13;5.73;;;25.00;41.70;;;;;;5072536;28;20590;-61
2022/08/14 09:11:53;;;;;;;6.50;6.20;;;25.00;41.60;;;;;;5071896;27;20454;-60
2022/08/14 09:14:39;;;;;;;6.57;6.17;;;25.00;41.70;;;;;;5081515;28;20864;-63
2022/08/14 09:17:05;;;;;;;6.73;6.23;;;25.00;41.70;;;;;;5080562;27;20816;-57
2022/08/14 09:19:31;;;;;;;6.97;6.63;;;25.00;41.80;;;;;;5075792;28;20460;-60
2022/08/14 09:21:57;;;;;;;6.27;5.97;;;25.00;41.70;;;;;;5081803;27;20220;-61
2022/08/14 09:24:22;;;;;;;6.50;6.20;;;25.00;41.70;;;;;;5083707;27;20216;-61
2022/08/14 09:26:48;;;;;;;7.33;6.93;;;25.00;41.70;;;;;;5078840;27;20235;-59
2022/08/14 09:29:14;;;;;;;6.60;6.30;;;25.00;41.70;;;;;;5084565;27;20274;-60
2022/08/14 09:31:44;;;;;;;7.07;6.67;;;25.00;42.50;;;;;;5079059;28;20449;-58
2022/08/14 09:34:47;;;;;;;6.70;6.33;;;25.00;41.80;;;;;;5081316;27;20238;-62
2022/08/14 09:37:36;;;;;;;6.50;6.20;;;25.00;41.80;;;;;;5065810;27;20564;-59
2022/08/14 09:40:18;;;;;;;6.57;6.20;;;25.00;41.80;;;;;;5062100;27;21022;-60
2022/08/14 09:42:55;;;;;;;7.07;6.67;;;25.00;41.70;;;;;;5080136;28;20528;-58
2022/08/14 09:45:35;;;;;;;7.07;6.57;;;25.00;41.80;;;;;;5082031;28;20453;-59
2022/08/14 09:48:01;;;;;;;6.70;6.20;;;25.00;41.70;;;;;;5079222;27;20795;-61
2022/08/14 09:50:43;;;;;;;7.70;7.20;;;24.90;41.70;;;;;;5077033;28;20465;-66
2022/08/14 09:53:09;;;;;;;7.33;6.93;;;25.00;41.70;;;;;;5073592;27;20303;-62
2022/08/14 09:55:35;;;;;;;6.90;6.60;;;25.00;41.80;;;;;;5066357;27;21059;-60
2022/08/14 09:58:10;;;;;;;7.67;7.17;;;25.00;41.80;;;;;;5082468;27;20221;-62
2022/08/14 10:00:48;;;;;;;6.43;6.13;;;24.90;41.70;;;;;;5075074;27;20239;-64
2022/08/14 10:03:34;;;;;;;6.97;6.67;;;25.00;41.80;;;;;;5079427;27;20445;-58
2022/08/14 10:06:06;;;;;;;7.53;7.13;;;25.00;41.80;;;;;;5076920;27;20478;-59
2022/08/14 10:08:51;;;;;;;7.47;7.07;;;24.90;41.90;;;;;;5058973;28;20535;-61
2022/08/14 10:11:22;;;;;;;8.07;7.53;;;24.90;41.80;;;;;;5071511;27;20442;-61
2022/08/14 10:13:53;;;;;;;6.73;6.37;;;24.90;41.90;;;;;;5072957;27;20459;-62
2022/08/14 10:16:25;;;;;;;7.30;6.90;;;24.90;41.90;;;;;;5073153;27;20460;-65
2022/08/14 10:19:09;;;;;;;7.17;6.67;;;24.90;42.00;;;;;;5070701;27;20488;-58
2022/08/14 10:21:38;;;;;;;6.37;5.87;;;24.90;41.90;;;;;;5074353;28;20461;-58
2022/08/14 10:24:07;;;;;;;6.67;6.20;;;24.90;41.90;;;;;;5078743;27;20441;-58
2022/08/14 10:26:34;;;;;;;6.70;6.30;;;24.90;41.90;;;;;;5082851;27;20449;-60
2022/08/14 10:29:11;;;;;;;7.20;6.80;;;24.90;41.90;;;;;;5080658;27;20941;-69
2022/08/14 10:31:37;;;;;;;7.80;7.30;;;24.90;41.90;;;;;;5077491;27;21518;-61
2022/08/14 10:34:08;;;;;;;6.17;5.87;;;24.90;42.00;;;;;;5082264;27;20481;-60
2022/08/14 10:36:40;;;;;;;6.43;6.13;;;24.90;41.80;;;;;;5079867;27;20951;-57
2022/08/14 10:39:21;;;;;;;7.97;7.47;;;24.90;41.80;;;;;;5072920;27;20449;-57
2022/08/14 10:41:48;;;;;;;7.30;6.90;;;24.90;41.70;;;;;;5077323;27;20460;-68
2022/08/14 10:44:23;;;;;;;7.17;6.70;;;24.90;41.80;;;;;;5075345;28;20456;-59
2022/08/14 10:47:01;;;;;;;6.57;6.20;;;24.90;41.80;;;;;;5079160;27;20967;-58
2022/08/14 10:49:27;;;;;;;6.97;6.57;;;24.90;41.80;;;;;;5075935;28;20453;-58
2022/08/14 10:51:59;;;;;;;7.50;6.80;;;24.90;41.80;;;;;;5071501;28;23756;-66
2022/08/14 10:54:51;;;;;;;7.17;6.67;;;24.90;41.80;;;;;;5073155;28;20450;-60
2022/08/14 10:57:20;;;;;;;7.03;6.63;;;24.90;41.80;;;;;;5068863;27;20523;-59
2022/08/14 10:59:56;;;;;;;7.90;7.40;;;24.90;41.90;;;;;;5064873;28;21027;-60
2022/08/14 11:02:28;;;;;;;6.97;6.57;;;24.90;41.90;;;;;;5070372;27;20464;-68
2022/08/14 11:05:02;;;;;;;7.57;7.07;;;24.90;41.90;;;;;;5062425;28;20503;-59
2022/08/14 11:07:30;;;;;;;6.30;5.90;;;24.90;41.90;;;;;;5075461;27;20471;-65
2022/08/14 11:09:57;;;;;;;7.23;6.70;;;24.90;41.90;;;;;;5069157;28;20456;-62
2022/08/14 11:12:45;;;;;;;6.03;5.70;;;24.90;41.80;;;;;;5062619;27;21087;-64
2022/08/14 11:15:11;;;;;;;7.33;6.87;;;24.90;41.80;;;;;;5068308;27;20452;-61
2022/08/14 11:17:37;;;;;;;6.00;5.60;;;25.00;41.80;;;;;;5075707;28;20451;-68
2022/08/14 11:20:07;;;;;;;6.97;6.57;;;25.00;41.70;;;;;;5069205;27;20472;-60
2022/08/14 11:22:33;;;;;;;5.47;5.17;;;25.00;41.70;;;;;;5072771;28;20221;-61
2022/08/14 11:25:03;;;;;;;6.43;6.03;;;25.00;41.70;;;;;;5063923;28;20789;-57
2022/08/14 11:27:31;;;;;;;5.77;5.47;;;25.00;41.50;;;;;;5079007;27;20220;-57
2022/08/14 11:30:02;;;;;;;5.83;5.10;;;25.00;41.40;;;;;;5068520;28;20453;-62
2022/08/14 11:32:29;;;;;;;6.60;6.20;;;25.00;41.30;;;;;;5075475;28;20474;-61
2022/08/14 11:34:56;;;;;;;6.80;6.40;;;25.00;41.30;;;;;;5073833;27;20843;-60
2022/08/14 11:37:23;;;;;;;7.00;6.60;;;25.00;41.40;;;;;;5076489;27;20446;-58
2022/08/14 11:39:48;;;;;;;7.03;6.50;;;25.00;41.40;;;;;;5071486;27;20477;-69
2022/08/14 11:42:26;;;;;;;7.00;6.63;;;25.00;41.40;;;;;;5081937;27;20456;-65
2022/08/14 11:44:55;;;;;;;7.70;7.00;;;25.00;41.40;;;;;;5070074;27;20224;-59
2022/08/14 11:47:21;;;;;;;6.30;5.80;;;25.00;41.40;;;;;;5079471;27;20801;-58
2022/08/14 11:49:48;;;;;;;5.73;5.33;;;25.00;41.40;;;;;;5072466;27;20476;-58
2022/08/14 11:52:18;;;;;;;6.50;6.00;;;25.00;41.30;;;;;;5060168;27;20229;-58
2022/08/14 11:54:54;;;;;;;5.80;5.50;;;25.00;41.20;;;;;;5063884;28;20878;-59
2022/08/14 11:57:20;;;;;;;5.10;4.90;;;24.90;41.10;;;;;;5071260;28;20452;-58
2022/08/14 11:59:46;;;;;;;5.33;5.03;;;25.00;41.10;;;;;;5066649;27;20865;-62
2022/08/14 12:02:16;;;;;;;5.80;5.50;;;25.00;41.00;;;;;;5066413;28;20217;-58
2022/08/14 12:04:52;;;;;;;5.73;5.43;;;25.00;40.90;;;;;;5077630;27;20221;-62
2022/08/14 12:07:19;;;;;;;5.80;5.50;;;25.00;40.80;;;;;;5077864;27;20473;-64
2022/08/14 12:09:50;;;;;;;6.63;6.33;;;25.00;40.80;;;;;;5076473;27;20466;-58
2022/08/14 12:12:21;;;;;;;6.97;6.57;;;25.00;40.80;;;;;;5067028;27;20449;-60
2022/08/14 12:14:47;;;;;;;7.13;6.83;;;25.00;40.90;;;;;;5074150;28;20626;-58
2022/08/14 12:17:13;;;;;;;6.43;5.77;;;24.90;40.80;;;;;;5072996;27;20472;-59
2022/08/14 12:19:47;;;;;;;6.40;6.10;;;25.00;40.70;;;;;;5081138;28;20457;-66
2022/08/14 12:22:13;;;;;;;5.93;5.63;;;25.00;40.70;;;;;;5081929;27;20292;-57
2022/08/14 12:24:45;;;;;;;5.83;5.53;;;25.00;40.80;;;;;;5070647;28;20857;-62
2022/08/14 12:27:14;;;;;;;6.63;6.30;;;25.00;40.70;;;;;;5082803;27;20319;-60
2022/08/14 12:29:51;;;;;;;6.70;6.30;;;25.00;40.70;;;;;;5074979;27;20468;-65
2022/08/14 12:32:16;;;;;;;7.07;6.57;;;24.90;40.70;;;;;;5069885;28;21031;-69
2022/08/14 12:34:42;;;;;;;7.93;7.43;;;24.90;40.80;;;;;;5068322;28;20473;-67
2022/08/14 12:37:08;;;;;;;6.93;6.53;;;25.00;41.00;;;;;;5069892;28;21038;-64
2022/08/14 12:39:35;;;;;;;7.07;6.67;;;24.90;40.90;;;;;;5068496;27;20591;-66
2022/08/14 12:42:05;;;;;;;5.93;5.53;;;24.90;41.00;;;;;;5079853;27;20572;-60
2022/08/14 12:44:36;;;;;;;5.30;5.07;;;24.90;41.00;;;;;;5078565;27;20457;-61
2022/08/14 12:47:13;;;;;;;6.13;5.83;;;24.90;41.00;;;;;;5075341;27;20558;-59
2022/08/14 12:49:53;;;;;;;6.30;6.00;;;24.90;40.90;;;;;;5076709;27;20505;-58
2022/08/14 12:52:37;;;;;;;7.03;6.63;;;24.90;40.90;;;;;;5070928;28;20900;-62
2022/08/14 12:55:05;;;;;;;5.60;5.30;;;24.90;41.00;;;;;;5076939;27;20935;-65
2022/08/14 12:57:40;;;;;;;5.73;5.43;;;24.90;41.00;;;;;;5063168;27;20891;-67
2022/08/14 13:00:18;;;;;;;6.50;6.10;;;24.90;40.80;;;;;;5070152;27;21208;-64
2022/08/14 13:02:51;;;;;;;22.70;7.50;;;25.00;40.80;;;;;;5054611;28;21664;-64
2022/08/14 13:05:21;;;;;;;7.20;6.80;;;24.90;40.90;;;;;;5073194;28;20469;-72
2022/08/14 13:07:48;;;;;;;6.17;5.87;;;24.90;41.80;;;;;;5076241;27;20462;-64
2022/08/14 13:10:14;;;;;;;5.97;5.47;;;24.90;41.10;;;;;;5072967;28;20949;-60
2022/08/14 13:12:41;;;;;;;6.37;6.07;;;24.90;41.10;;;;;;5076385;27;20453;-68